Time;durP1;ratioP1;P1;durP2;ratioP2;P2;SDS_P1;SDS_P2;PMS_P1;PMS_P2;Temp;Humidity;BMP_temperature;BMP_pressure;BME280_temperature;BME280_humidity;BME280_pressure;Samples;Min_cycle;Max_cycle;Signal;HPM_P1;HPM_P2
2021/06/25 00:00:16;;;;;;;43.42;7.93;;;;;;;;;;5032367;28;20474;-66
2021/06/25 00:02:42;;;;;;;40.30;7.55;;;;;;;;;;5032301;28;20052;-67
2021/06/25 00:05:08;;;;;;;41.47;8.30;;;;;;;;;;5032386;28;20053;-67
2021/06/25 00:07:33;;;;;;;44.08;9.25;;;;;;;;;;5033152;28;20026;-67
2021/06/25 00:09:59;;;;;;;49.22;8.32;;;;;;;;;;5036492;28;20094;-67
2021/06/25 00:12:24;;;;;;;37.63;8.63;;;;;;;;;;5037138;28;20410;-66
2021/06/25 00:14:50;;;;;;;46.83;8.05;;;;;;;;;;5036426;28;20017;-66
2021/06/25 00:17:15;;;;;;;36.30;8.68;;;;;;;;;;5036615;28;20025;-67
2021/06/25 00:19:41;;;;;;;43.15;8.75;;;;;;;;;;5036715;28;20080;-66
2021/06/25 00:22:06;;;;;;;38.25;7.75;;;;;;;;;;5036635;28;20056;-66
2021/06/25 00:24:32;;;;;;;42.70;8.82;;;;;;;;;;5036552;28;20072;-66
2021/06/25 00:26:57;;;;;;;44.05;8.18;;;;;;;;;;5036696;28;20044;-66
2021/06/25 00:29:22;;;;;;;51.25;8.07;;;;;;;;;;5036303;28;20013;-67
2021/06/25 00:31:48;;;;;;;33.72;7.28;;;;;;;;;;5036327;28;20452;-66
2021/06/25 00:34:14;;;;;;;41.92;8.45;;;;;;;;;;5036187;28;20469;-67
2021/06/25 00:36:39;;;;;;;49.85;8.38;;;;;;;;;;5035992;28;20072;-66
2021/06/25 00:39:05;;;;;;;50.33;9.32;;;;;;;;;;5036232;28;20025;-66
2021/06/25 00:41:30;;;;;;;23.15;6.55;;;;;;;;;;5035938;28;20037;-66
2021/06/25 00:43:56;;;;;;;44.83;7.63;;;;;;;;;;5035872;28;20489;-66
2021/06/25 00:46:22;;;;;;;34.92;7.35;;;;;;;;;;5036013;28;20029;-67
2021/06/25 00:48:48;;;;;;;41.05;8.35;;;;;;;;;;5035987;28;20033;-67
2021/06/25 00:51:13;;;;;;;50.08;7.85;;;;;;;;;;5035939;28;20359;-66
2021/06/25 00:53:42;;;;;;;58.30;9.48;;;;;;;;;;5035787;28;20451;-67
2021/06/25 00:56:10;;;;;;;52.58;8.55;;;;;;;;;;5035339;28;20053;-66
2021/06/25 00:58:36;;;;;;;45.15;8.25;;;;;;;;;;5035547;28;20025;-66
2021/06/25 01:01:02;;;;;;;34.10;7.63;;;;;;;;;;5035946;28;20544;-67
2021/06/25 01:03:27;;;;;;;41.60;8.05;;;;;;;;;;5035609;28;20029;-67
2021/06/25 01:05:53;;;;;;;38.63;7.85;;;;;;;;;;5035340;28;20041;-66
2021/06/25 01:08:18;;;;;;;38.42;8.75;;;;;;;;;;5035644;28;20025;-67
2021/06/25 01:10:44;;;;;;;34.22;7.63;;;;;;;;;;5035389;28;20054;-67
2021/06/25 01:13:09;;;;;;;35.58;6.47;;;;;;;;;;5035412;28;20017;-67
2021/06/25 01:15:35;;;;;;;59.65;8.95;;;;;;;;;;5035323;28;20017;-66
2021/06/25 01:18:00;;;;;;;35.17;8.32;;;;;;;;;;5035297;28;20017;-66
2021/06/25 01:20:27;;;;;;;37.17;7.28;;;;;;;;;;5035140;28;20381;-67
2021/06/25 01:22:53;;;;;;;24.70;7.13;;;;;;;;;;5017891;28;20025;-66
2021/06/25 01:25:23;;;;;;;32.05;7.88;;;;;;;;;;5035247;28;20025;-67
2021/06/25 01:27:50;;;;;;;41.13;8.05;;;;;;;;;;5035201;28;20104;-67
2021/06/25 01:30:17;;;;;;;43.28;8.00;;;;;;;;;;5017791;28;20116;-66
2021/06/25 01:32:43;;;;;;;48.55;7.63;;;;;;;;;;5034993;28;20055;-67
2021/06/25 01:35:10;;;;;;;50.03;8.68;;;;;;;;;;5035102;28;20041;-67
2021/06/25 01:37:35;;;;;;;42.33;7.32;;;;;;;;;;5034778;28;20025;-66
2021/06/25 01:40:01;;;;;;;53.97;8.50;;;;;;;;;;5034966;28;20028;-66
2021/06/25 01:42:28;;;;;;;50.78;7.45;;;;;;;;;;5034828;28;20022;-67
2021/06/25 01:44:54;;;;;;;46.55;7.93;;;;;;;;;;5034912;28;20524;-67
2021/06/25 01:47:19;;;;;;;45.75;7.38;;;;;;;;;;5034891;28;20021;-67
2021/06/25 01:49:45;;;;;;;52.00;9.18;;;;;;;;;;5034554;28;20017;-67
2021/06/25 01:52:17;;;;;;;53.38;8.10;;;;;;;;;;5034641;28;20022;-67
2021/06/25 01:54:43;;;;;;;45.80;8.68;;;;;;;;;;5034870;28;20497;-67
2021/06/25 01:57:09;;;;;;;46.20;8.07;;;;;;;;;;5034469;28;20030;-66
2021/06/25 01:59:35;;;;;;;38.60;8.00;;;;;;;;;;5034352;28;20010;-66
2021/06/25 02:02:00;;;;;;;41.88;7.65;;;;;;;;;;5034436;28;20048;-66
2021/06/25 02:04:25;;;;;;;55.28;7.40;;;;;;;;;;5034422;28;20112;-67
2021/06/25 02:06:51;;;;;;;44.53;7.72;;;;;;;;;;5034401;28;20057;-67
2021/06/25 02:09:16;;;;;;;44.55;7.53;;;;;;;;;;5035078;28;20076;-66
2021/06/25 02:11:42;;;;;;;35.80;7.25;;;;;;;;;;5034078;28;20026;-67
2021/06/25 02:14:07;;;;;;;48.97;7.60;;;;;;;;;;5034207;28;20013;-66
2021/06/25 02:16:33;;;;;;;58.47;7.10;;;;;;;;;;5034170;28;20030;-66
2021/06/25 02:18:58;;;;;;;52.42;7.63;;;;;;;;;;5034398;28;20020;-66
2021/06/25 02:21:24;;;;;;;35.30;7.07;;;;;;;;;;5034298;28;20017;-67
2021/06/25 02:23:49;;;;;;;47.42;7.05;;;;;;;;;;5033910;28;20477;-66
2021/06/25 02:26:14;;;;;;;54.35;7.07;;;;;;;;;;5034038;28;20040;-67
2021/06/25 02:28:40;;;;;;;38.97;8.05;;;;;;;;;;5033836;28;20018;-66
2021/06/25 02:31:05;;;;;;;36.22;6.60;;;;;;;;;;5033415;28;20013;-67
2021/06/25 02:33:31;;;;;;;44.95;7.38;;;;;;;;;;5033807;28;20056;-67
2021/06/25 02:35:56;;;;;;;39.10;6.82;;;;;;;;;;5033714;28;20021;-66
2021/06/25 02:38:22;;;;;;;33.33;6.82;;;;;;;;;;5033886;28;20060;-66
2021/06/25 02:40:47;;;;;;;37.60;6.47;;;;;;;;;;5033717;28;20025;-66
2021/06/25 02:43:12;;;;;;;27.15;6.03;;;;;;;;;;5033821;28;20022;-66
2021/06/25 02:45:38;;;;;;;36.58;7.70;;;;;;;;;;5033698;28;20532;-67
2021/06/25 02:48:04;;;;;;;44.92;7.65;;;;;;;;;;5033517;28;20028;-66
2021/06/25 02:50:30;;;;;;;47.33;6.93;;;;;;;;;;5033691;28;20071;-66
2021/06/25 02:52:55;;;;;;;42.08;6.22;;;;;;;;;;5033844;28;20017;-66
2021/06/25 02:55:21;;;;;;;37.10;6.25;;;;;;;;;;5033607;28;20021;-66
2021/06/25 02:57:46;;;;;;;29.30;7.20;;;;;;;;;;5033212;28;20053;-67
2021/06/25 03:00:14;;;;;;;34.90;6.43;;;;;;;;;;5033345;28;20009;-67
2021/06/25 03:02:40;;;;;;;31.55;7.13;;;;;;;;;;5015506;28;20355;-67
2021/06/25 03:05:06;;;;;;;40.95;6.95;;;;;;;;;;5015506;28;20090;-67
2021/06/25 03:07:32;;;;;;;33.88;5.47;;;;;;;;;;5033261;28;20545;-67
2021/06/25 03:09:57;;;;;;;40.10;6.55;;;;;;;;;;5033287;28;20103;-66
2021/06/25 03:12:22;;;;;;;40.42;7.55;;;;;;;;;;5032992;28;20018;-66
2021/06/25 03:14:48;;;;;;;24.73;6.38;;;;;;;;;;5032926;28;20029;-66
2021/06/25 03:17:13;;;;;;;39.88;7.25;;;;;;;;;;5033074;28;20029;-67
2021/06/25 03:19:39;;;;;;;34.20;7.93;;;;;;;;;;5033004;28;20480;-67
2021/06/25 03:22:04;;;;;;;29.60;6.82;;;;;;;;;;5032898;28;20534;-67
2021/06/25 03:24:30;;;;;;;37.42;7.55;;;;;;;;;;5032865;28;20021;-67
2021/06/25 03:26:55;;;;;;;42.50;6.60;;;;;;;;;;5015242;28;20013;-66
2021/06/25 03:29:21;;;;;;;47.58;6.50;;;;;;;;;;5032792;28;20025;-67
2021/06/25 03:31:46;;;;;;;39.50;8.63;;;;;;;;;;5032816;28;20063;-66
2021/06/25 03:34:12;;;;;;;36.90;6.70;;;;;;;;;;5032633;28;20067;-66
2021/06/25 03:36:37;;;;;;;38.95;6.32;;;;;;;;;;5032714;28;20025;-66
2021/06/25 03:39:04;;;;;;;30.35;5.50;;;;;;;;;;5033056;28;20021;-66
2021/06/25 03:41:29;;;;;;;25.30;5.30;;;;;;;;;;5032713;28;20021;-66
2021/06/25 03:43:55;;;;;;;36.30;6.93;;;;;;;;;;5032304;28;20028;-67
2021/06/25 03:46:22;;;;;;;48.97;8.18;;;;;;;;;;5032868;28;20101;-67
2021/06/25 03:48:47;;;;;;;28.42;6.68;;;;;;;;;;5032648;28;20053;-66
2021/06/25 03:51:13;;;;;;;46.88;7.32;;;;;;;;;;5032743;28;20058;-66
2021/06/25 03:53:38;;;;;;;64.70;8.90;;;;;;;;;;5014869;28;20485;-67
2021/06/25 03:56:10;;;;;;;33.53;6.65;;;;;;;;;;5032860;28;20053;-66
2021/06/25 03:58:40;;;;;;;30.23;6.13;;;;;;;;;;5032424;28;20026;-66
2021/06/25 04:01:06;;;;;;;37.05;6.78;;;;;;;;;;5032770;28;20552;-66
2021/06/25 04:03:31;;;;;;;51.30;8.48;;;;;;;;;;5032853;28;20021;-66
2021/06/25 04:05:57;;;;;;;31.02;6.85;;;;;;;;;;5032651;28;20069;-66
2021/06/25 04:08:25;;;;;;;20.60;5.88;;;;;;;;;;5032986;28;20013;-67
2021/06/25 04:10:50;;;;;;;32.00;6.68;;;;;;;;;;5032549;28;20022;-67
2021/06/25 04:13:16;;;;;;;25.45;6.22;;;;;;;;;;5032503;28;20695;-67
2021/06/25 04:15:41;;;;;;;26.30;6.40;;;;;;;;;;5032789;28;20014;-66
2021/06/25 04:18:07;;;;;;;43.22;7.97;;;;;;;;;;5032210;28;20030;-66
2021/06/25 04:20:33;;;;;;;43.63;8.07;;;;;;;;;;5032265;28;20071;-67
2021/06/25 04:22:58;;;;;;;35.63;7.05;;;;;;;;;;5032451;28;20025;-66
2021/06/25 04:25:24;;;;;;;38.65;7.38;;;;;;;;;;5032359;28;20022;-66
2021/06/25 04:27:49;;;;;;;38.65;7.80;;;;;;;;;;5032063;28;20022;-66
2021/06/25 04:30:15;;;;;;;35.80;6.93;;;;;;;;;;5032474;28;20033;-67
2021/06/25 04:32:41;;;;;;;46.72;7.93;;;;;;;;;;5032137;28;20071;-67
2021/06/25 04:35:07;;;;;;;41.67;8.48;;;;;;;;;;5032645;28;20057;-66
2021/06/25 04:37:32;;;;;;;27.33;6.80;;;;;;;;;;5032248;28;20555;-66
2021/06/25 04:39:58;;;;;;;45.55;7.68;;;;;;;;;;5032250;28;20048;-67
2021/06/25 04:42:23;;;;;;;35.55;7.03;;;;;;;;;;5031983;28;20074;-67
2021/06/25 04:44:49;;;;;;;32.13;7.35;;;;;;;;;;5031977;28;20025;-66
2021/06/25 04:47:14;;;;;;;24.70;6.90;;;;;;;;;;5032140;28;20037;-66
2021/06/25 04:49:42;;;;;;;30.40;6.45;;;;;;;;;;5032156;28;20474;-67
2021/06/25 04:52:08;;;;;;;29.45;7.10;;;;;;;;;;5014323;28;20096;-66
2021/06/25 04:54:34;;;;;;;33.60;7.13;;;;;;;;;;5034340;28;20133;-66
2021/06/25 04:56:59;;;;;;;28.38;6.72;;;;;;;;;;5035530;28;20452;-66
2021/06/25 04:59:26;;;;;;;29.58;6.90;;;;;;;;;;5035678;28;20099;-67
2021/06/25 05:01:52;;;;;;;38.90;7.15;;;;;;;;;;5035424;28;20092;-66
2021/06/25 05:04:17;;;;;;;37.78;8.20;;;;;;;;;;5035544;28;20113;-67
2021/06/25 05:06:43;;;;;;;30.95;6.53;;;;;;;;;;5035310;28;20053;-67
2021/06/25 05:09:09;;;;;;;22.60;6.47;;;;;;;;;;5035679;28;20025;-67
2021/06/25 05:11:34;;;;;;;28.67;6.53;;;;;;;;;;5035233;28;20087;-66
2021/06/25 05:13:59;;;;;;;28.98;6.38;;;;;;;;;;5035325;28;20025;-67
2021/06/25 05:16:25;;;;;;;26.70;6.18;;;;;;;;;;5035407;28;20029;-67
2021/06/25 05:18:50;;;;;;;19.67;5.40;;;;;;;;;;5035303;28;20021;-67
2021/06/25 05:21:16;;;;;;;13.60;5.82;;;;;;;;;;5035258;28;20067;-67
2021/06/25 05:23:41;;;;;;;30.25;6.57;;;;;;;;;;5035142;28;20017;-67
2021/06/25 05:26:07;;;;;;;20.60;6.97;;;;;;;;;;5035260;28;20017;-67
2021/06/25 05:28:32;;;;;;;19.00;6.13;;;;;;;;;;5035292;28;20119;-66
2021/06/25 05:30:58;;;;;;;15.77;5.53;;;;;;;;;;5034989;28;20508;-66
2021/06/25 05:33:23;;;;;;;18.30;6.22;;;;;;;;;;5035196;28;20032;-67
2021/06/25 05:35:49;;;;;;;22.48;5.68;;;;;;;;;;5035010;28;20124;-66
2021/06/25 05:38:15;;;;;;;40.10;7.78;;;;;;;;;;5035082;28;20094;-66
2021/06/25 05:40:40;;;;;;;20.50;6.00;;;;;;;;;;5034920;28;20018;-66
2021/06/25 05:43:06;;;;;;;26.70;6.60;;;;;;;;;;5034719;28;20080;-66
2021/06/25 05:45:33;;;;;;;21.38;6.35;;;;;;;;;;5034845;28;20020;-66
2021/06/25 05:47:59;;;;;;;12.60;4.78;;;;;;;;;;5034975;28;20017;-66
2021/06/25 05:50:25;;;;;;;13.95;5.28;;;;;;;;;;5035047;28;20024;-66
2021/06/25 05:52:50;;;;;;;25.48;5.40;;;;;;;;;;5034789;28;20029;-67
2021/06/25 05:55:16;;;;;;;17.58;5.60;;;;;;;;;;5034800;28;20026;-67
2021/06/25 05:57:43;;;;;;;10.52;4.40;;;;;;;;;;5016614;28;20034;-67
2021/06/25 06:00:09;;;;;;;17.05;5.47;;;;;;;;;;5034568;28;20581;-66
2021/06/25 06:02:34;;;;;;;16.35;4.88;;;;;;;;;;5032764;28;20091;-67
2021/06/25 06:05:00;;;;;;;20.55;5.80;;;;;;;;;;5020494;28;20033;-64
2021/06/25 06:07:26;;;;;;;25.15;5.88;;;;;;;;;;5015541;28;20482;-66
2021/06/25 06:09:52;;;;;;;14.68;5.38;;;;;;;;;;5031016;28;20044;-67
2021/06/25 06:12:18;;;;;;;13.90;4.97;;;;;;;;;;5030181;28;20017;-67
2021/06/25 06:14:43;;;;;;;21.02;5.82;;;;;;;;;;5031736;28;20067;-67
2021/06/25 06:17:08;;;;;;;11.15;4.90;;;;;;;;;;5032248;28;20051;-67
2021/06/25 06:19:43;;;;;;;15.38;5.38;;;;;;;;;;5032170;28;20018;-67
2021/06/25 06:33:22;;;;;;;28.67;5.50;;;;;;;;;;5025224;28;20033;-67
2021/06/25 06:35:49;;;;;;;14.65;5.38;;;;;;;;;;5024169;28;20022;-67
2021/06/25 06:38:14;;;;;;;17.70;5.07;;;;;;;;;;5030137;28;20075;-67
2021/06/25 06:40:40;;;;;;;15.15;4.82;;;;;;;;;;5029915;28;20025;-68
2021/06/25 06:43:05;;;;;;;13.63;4.38;;;;;;;;;;5032618;28;20025;-68
2021/06/25 06:45:31;;;;;;;16.00;5.18;;;;;;;;;;5013471;28;20036;-68
2021/06/25 06:47:56;;;;;;;14.30;4.07;;;;;;;;;;5015326;28;20025;-69
2021/06/25 06:50:22;;;;;;;10.68;4.38;;;;;;;;;;5032951;28;20100;-67
2021/06/25 06:52:50;;;;;;;19.25;5.65;;;;;;;;;;5032441;28;20425;-67
2021/06/25 06:55:19;;;;;;;16.90;4.78;;;;;;;;;;5032243;28;20033;-67
2021/06/25 06:57:45;;;;;;;13.15;4.35;;;;;;;;;;5032437;28;20512;-67
2021/06/25 07:00:11;;;;;;;76.93;8.50;;;;;;;;;;5032379;28;20027;-67
2021/06/25 07:02:37;;;;;;;13.85;4.57;;;;;;;;;;5032225;28;20025;-66
2021/06/25 07:05:03;;;;;;;22.90;5.38;;;;;;;;;;5031984;28;20446;-67
2021/06/25 07:07:29;;;;;;;10.00;4.15;;;;;;;;;;5031373;28;20112;-66
2021/06/25 07:09:54;;;;;;;15.27;4.57;;;;;;;;;;5031631;28;20025;-68
2021/06/25 07:12:19;;;;;;;11.70;4.28;;;;;;;;;;5042609;28;20093;-67
2021/06/25 07:14:45;;;;;;;15.55;4.25;;;;;;;;;;5021492;28;20153;-67
2021/06/25 07:17:10;;;;;;;18.48;4.30;;;;;;;;;;5028484;28;20104;-68
2021/06/25 07:19:35;;;;;;;20.42;5.32;;;;;;;;;;5031801;28;20025;-66
2021/06/25 07:22:01;;;;;;;12.80;3.75;;;;;;;;;;5030065;28;20509;-68
2021/06/25 07:24:26;;;;;;;23.20;4.60;;;;;;;;;;5031663;28;20014;-68
2021/06/25 07:26:52;;;;;;;14.70;4.63;;;;;;;;;;5031882;28;20110;-66
2021/06/25 07:29:17;;;;;;;12.63;4.40;;;;;;;;;;5031701;28;20091;-66
2021/06/25 07:31:42;;;;;;;12.35;4.13;;;;;;;;;;5031639;28;20032;-67
2021/06/25 07:34:08;;;;;;;13.45;4.78;;;;;;;;;;5031491;28;20025;-67
2021/06/25 07:36:33;;;;;;;16.50;4.13;;;;;;;;;;5030060;28;20041;-67
2021/06/25 07:38:59;;;;;;;20.52;4.60;;;;;;;;;;5030825;28;20637;-67
2021/06/25 07:41:24;;;;;;;15.80;5.20;;;;;;;;;;5041878;28;20036;-66
2021/06/25 07:43:49;;;;;;;10.38;4.32;;;;;;;;;;5034995;28;20018;-66
2021/06/25 07:46:15;;;;;;;13.98;4.35;;;;;;;;;;5030723;28;20024;-65
2021/06/25 07:48:40;;;;;;;13.95;4.90;;;;;;;;;;5031598;28;20029;-65
2021/06/25 07:51:06;;;;;;;13.77;3.83;;;;;;;;;;5031507;28;20021;-66
2021/06/25 07:53:31;;;;;;;11.15;3.90;;;;;;;;;;5031541;28;20028;-67
2021/06/25 07:55:57;;;;;;;7.15;3.55;;;;;;;;;;5031311;28;20497;-66
2021/06/25 07:58:22;;;;;;;16.35;4.18;;;;;;;;;;5022374;28;20025;-66
2021/06/25 08:00:48;;;;;;;17.33;4.28;;;;;;;;;;5020708;28;20483;-67
2021/06/25 08:03:13;;;;;;;11.63;4.07;;;;;;;;;;5023169;28;20024;-67
2021/06/25 08:05:38;;;;;;;14.38;4.88;;;;;;;;;;5018678;28;20053;-66
2021/06/25 08:08:04;;;;;;;21.70;4.78;;;;;;;;;;5006713;28;20028;-66
2021/06/25 08:10:30;;;;;;;13.23;3.55;;;;;;;;;;5011092;28;20148;-65
2021/06/25 08:12:55;;;;;;;19.25;4.43;;;;;;;;;;5011426;28;20485;-67
2021/06/25 08:15:21;;;;;;;11.77;4.10;;;;;;;;;;5000387;28;20545;-66
2021/06/25 08:17:46;;;;;;;11.05;4.07;;;;;;;;;;5000799;28;20031;-66
2021/06/25 08:20:12;;;;;;;17.10;3.97;;;;;;;;;;5006013;28;20121;-66
2021/06/25 08:22:37;;;;;;;9.45;2.95;;;;;;;;;;5015046;28;20025;-68
2021/06/25 08:25:03;;;;;;;16.05;4.85;;;;;;;;;;4997786;28;20026;-66
2021/06/25 08:27:28;;;;;;;140.40;10.50;;;;;;;;;;5011257;28;20050;-69
2021/06/25 08:29:55;;;;;;;12.40;3.85;;;;;;;;;;5013335;28;20021;-68
2021/06/25 08:32:21;;;;;;;7.90;3.33;;;;;;;;;;5003807;28;20026;-69
2021/06/25 08:34:47;;;;;;;8.25;3.25;;;;;;;;;;5015038;28;20057;-69
2021/06/25 08:37:13;;;;;;;9.40;3.33;;;;;;;;;;5015163;28;20061;-67
2021/06/25 08:39:38;;;;;;;10.90;3.40;;;;;;;;;;5015216;28;20234;-67
2021/06/25 08:42:04;;;;;;;11.68;3.90;;;;;;;;;;5009371;28;20438;-69
2021/06/25 08:44:37;;;;;;;10.10;4.07;;;;;;;;;;5007547;28;20810;-66
2021/06/25 08:47:03;;;;;;;12.52;3.42;;;;;;;;;;5007515;28;20429;-67
2021/06/25 08:49:29;;;;;;;14.13;3.35;;;;;;;;;;5003581;28;20026;-66
2021/06/25 08:51:55;;;;;;;14.55;3.47;;;;;;;;;;5011234;28;20498;-67
2021/06/25 08:54:20;;;;;;;17.73;3.20;;;;;;;;;;5014500;28;20462;-66
2021/06/25 08:56:46;;;;;;;4.95;2.38;;;;;;;;;;5013459;28;20042;-70
2021/06/25 08:59:18;;;;;;;11.82;3.10;;;;;;;;;;5005220;28;20030;-71
2021/06/25 09:01:44;;;;;;;9.20;3.45;;;;;;;;;;5013041;28;20061;-69
2021/06/25 09:04:28;;;;;;;11.50;2.92;;;;;;;;;;5027772;28;20068;-68
2021/06/25 09:06:54;;;;;;;11.52;3.08;;;;;;;;;;5024696;28;20133;-72
2021/06/25 09:09:20;;;;;;;9.82;2.80;;;;;;;;;;5014202;28;20545;-69
2021/06/25 09:11:46;;;;;;;8.48;2.80;;;;;;;;;;5013942;28;20105;-68
2021/06/25 09:14:11;;;;;;;6.25;2.85;;;;;;;;;;5013445;28;20124;-70
2021/06/25 09:16:38;;;;;;;9.40;3.20;;;;;;;;;;5012811;28;20025;-69
2021/06/25 09:19:05;;;;;;;10.25;3.25;;;;;;;;;;5013832;28;20056;-69
2021/06/25 09:21:31;;;;;;;;;;;;;;;;;;5013893;28;20025;-76
2021/06/25 09:23:56;;;;;;;9.15;2.90;;;;;;;;;;5014609;28;20407;-71
2021/06/25 09:26:22;;;;;;;9.43;2.80;;;;;;;;;;5013281;28;20014;-72
2021/06/25 09:28:48;;;;;;;10.27;2.90;;;;;;;;;;5016622;28;20025;-72
2021/06/25 09:31:15;;;;;;;9.32;2.92;;;;;;;;;;4988116;28;20018;-73
2021/06/25 09:33:44;;;;;;;8.43;2.90;;;;;;;;;;5018448;28;20018;-71
2021/06/25 09:36:20;;;;;;;8.93;2.83;;;;;;;;;;5026304;28;20108;-68
2021/06/25 09:38:46;;;;;;;20.83;3.40;;;;;;;;;;5005763;28;20069;-64
2021/06/25 09:41:15;;;;;;;6.72;2.80;;;;;;;;;;5013631;28;20057;-64
2021/06/25 09:43:41;;;;;;;10.48;2.90;;;;;;;;;;5013583;28;20106;-64
2021/06/25 09:46:06;;;;;;;12.48;3.30;;;;;;;;;;5013135;28;20121;-64
2021/06/25 09:48:50;;;;;;;14.77;3.28;;;;;;;;;;5013454;28;20493;-64
2021/06/25 09:51:15;;;;;;;6.30;2.97;;;;;;;;;;5013575;28;20026;-64
2021/06/25 09:54:00;;;;;;;12.18;2.83;;;;;;;;;;5012613;28;20115;-64
2021/06/25 09:56:26;;;;;;;7.93;2.70;;;;;;;;;;5009782;28;20037;-64
2021/06/25 09:59:00;;;;;;;11.15;2.80;;;;;;;;;;5012408;28;20022;-64
2021/06/25 10:01:26;;;;;;;13.00;3.10;;;;;;;;;;4991738;28;20022;-65
2021/06/25 10:03:59;;;;;;;13.85;2.63;;;;;;;;;;5009894;28;20088;-65
2021/06/25 10:06:26;;;;;;;8.85;2.50;;;;;;;;;;5020994;28;20087;-66
2021/06/25 10:08:52;;;;;;;14.23;2.92;;;;;;;;;;5032222;28;20057;-65
2021/06/25 10:11:19;;;;;;;7.50;2.70;;;;;;;;;;5010407;28;20014;-66
2021/06/25 10:13:45;;;;;;;6.78;2.70;;;;;;;;;;5031490;28;20494;-66
2021/06/25 10:16:11;;;;;;;8.85;2.70;;;;;;;;;;5031132;28;20026;-64
2021/06/25 10:18:40;;;;;;;11.55;3.00;;;;;;;;;;5032378;28;20378;-67
2021/06/25 10:21:06;;;;;;;10.07;2.80;;;;;;;;;;5031763;28;20377;-67
2021/06/25 10:23:32;;;;;;;9.25;2.95;;;;;;;;;;5031324;28;20025;-64
2021/06/25 10:25:58;;;;;;;6.15;2.33;;;;;;;;;;5029446;28;20064;-68
2021/06/25 10:28:24;;;;;;;6.80;2.45;;;;;;;;;;5033977;28;20018;-63
2021/06/25 10:30:49;;;;;;;8.43;2.80;;;;;;;;;;5033159;28;20040;-64
2021/06/25 10:33:15;;;;;;;13.02;2.70;;;;;;;;;;5030099;28;20183;-64
2021/06/25 10:35:41;;;;;;;11.10;2.67;;;;;;;;;;5031530;28;20028;-66
2021/06/25 10:38:07;;;;;;;14.40;3.25;;;;;;;;;;5031486;28;20049;-66
2021/06/25 10:40:33;;;;;;;7.30;2.40;;;;;;;;;;5031106;28;20496;-67
2021/06/25 10:43:01;;;;;;;9.00;2.70;;;;;;;;;;5035495;28;20024;-64
2021/06/25 10:45:45;;;;;;;9.85;3.58;;;;;;;;;;5031586;28;20036;-63
2021/06/25 10:48:10;;;;;;;5.45;2.47;;;;;;;;;;5030577;28;20128;-63
2021/06/25 10:50:36;;;;;;;9.80;2.88;;;;;;;;;;5032534;28;20386;-63
2021/06/25 10:53:06;;;;;;;8.50;2.72;;;;;;;;;;5030814;28;20025;-64
2021/06/25 10:55:31;;;;;;;5.45;2.00;;;;;;;;;;5030567;28;20093;-62
2021/06/25 10:58:04;;;;;;;12.15;2.72;;;;;;;;;;5031693;28;20129;-62
2021/06/25 11:00:52;;;;;;;6.43;2.50;;;;;;;;;;5036345;28;20051;-62
2021/06/25 11:03:37;;;;;;;7.20;2.55;;;;;;;;;;5036236;28;20075;-63
2021/06/25 11:06:03;;;;;;;11.90;2.63;;;;;;;;;;5036487;28;21595;-63
2021/06/25 11:08:28;;;;;;;14.90;3.22;;;;;;;;;;5031328;28;20045;-60
2021/06/25 11:10:55;;;;;;;10.07;2.75;;;;;;;;;;5031630;28;20065;-62
2021/06/25 11:13:22;;;;;;;5.57;2.40;;;;;;;;;;5009774;28;20482;-68
2021/06/25 11:15:48;;;;;;;10.60;2.08;;;;;;;;;;5030250;28;20021;-65
2021/06/25 11:18:16;;;;;;;18.73;3.80;;;;;;;;;;5030190;28;20029;-67
2021/06/25 11:20:55;;;;;;;7.72;2.00;;;;;;;;;;5024631;28;20583;-67
2021/06/25 11:23:23;;;;;;;9.70;2.20;;;;;;;;;;5031780;28;20103;-66
2021/06/25 11:25:53;;;;;;;8.77;2.80;;;;;;;;;;5032429;28;20433;-67
2021/06/25 11:28:31;;;;;;;8.23;2.80;;;;;;;;;;5038785;28;20024;-67
2021/06/25 11:31:17;;;;;;;8.38;2.70;;;;;;;;;;5038028;28;20382;-66
2021/06/25 11:33:56;;;;;;;6.63;2.95;;;;;;;;;;5040129;28;20033;-66
2021/06/25 11:36:27;;;;;;;9.10;3.10;;;;;;;;;;5034840;28;20068;-67
2021/06/25 11:39:00;;;;;;;10.93;2.58;;;;;;;;;;5037128;28;20094;-66
2021/06/25 11:41:52;;;;;;;15.05;3.00;;;;;;;;;;5036863;28;20036;-66
2021/06/25 11:44:24;;;;;;;10.18;2.03;;;;;;;;;;5031873;28;20029;-67
2021/06/25 11:46:52;;;;;;;8.05;2.72;;;;;;;;;;5034888;28;20185;-67
2021/06/25 11:49:18;;;;;;;7.90;2.15;;;;;;;;;;5037462;28;20485;-67
2021/06/25 11:51:45;;;;;;;8.95;2.72;;;;;;;;;;5035279;28;20064;-67
2021/06/25 11:54:12;;;;;;;13.63;2.05;;;;;;;;;;5037751;28;20025;-67
2021/06/25 11:56:38;;;;;;;6.68;2.88;;;;;;;;;;5025890;28;20029;-67
2021/06/25 11:59:05;;;;;;;12.57;2.90;;;;;;;;;;5027452;28;20025;-67
2021/06/25 12:01:31;;;;;;;5.50;2.13;;;;;;;;;;5028481;28;20119;-67
2021/06/25 12:03:56;;;;;;;7.05;2.90;;;;;;;;;;5023933;28;20121;-67
2021/06/25 12:06:22;;;;;;;9.52;2.92;;;;;;;;;;5001326;28;20061;-67
2021/06/25 12:08:52;;;;;;;13.82;3.30;;;;;;;;;;5020108;28;20049;-67
2021/06/25 12:11:18;;;;;;;15.60;3.22;;;;;;;;;;5019386;28;20014;-67
2021/06/25 12:13:43;;;;;;;12.20;2.45;;;;;;;;;;5020867;28;20017;-67
2021/06/25 12:16:10;;;;;;;11.98;2.65;;;;;;;;;;5019866;28;20030;-67
2021/06/25 12:18:41;;;;;;;9.52;2.28;;;;;;;;;;5020712;28;20025;-68
2021/06/25 12:21:11;;;;;;;7.45;2.08;;;;;;;;;;5020320;28;20490;-66
2021/06/25 12:23:37;;;;;;;12.15;2.55;;;;;;;;;;5022614;28;20041;-67
2021/06/25 12:26:15;;;;;;;9.18;2.05;;;;;;;;;;5023564;28;20053;-66
2021/06/25 12:28:41;;;;;;;15.98;2.22;;;;;;;;;;5022098;28;20068;-65
2021/06/25 12:31:15;;;;;;;12.40;2.72;;;;;;;;;;5018810;28;20042;-66
2021/06/25 12:33:51;;;;;;;12.13;2.22;;;;;;;;;;5027791;28;20501;-65
2021/06/25 12:36:17;;;;;;;11.52;2.50;;;;;;;;;;5028510;28;20072;-65
2021/06/25 12:38:46;;;;;;;6.25;2.15;;;;;;;;;;5030559;28;20049;-65
2021/06/25 12:41:13;;;;;;;7.05;2.40;;;;;;;;;;5028984;28;20084;-66
2021/06/25 12:43:43;;;;;;;12.23;2.95;;;;;;;;;;5029865;28;20022;-67
2021/06/25 12:46:13;;;;;;;7.82;2.92;;;;;;;;;;5030041;28;20140;-66
2021/06/25 12:48:49;;;;;;;9.95;3.70;;;;;;;;;;5030887;28;20544;-68
2021/06/25 12:51:16;;;;;;;9.43;2.25;;;;;;;;;;5026868;28;20351;-68
2021/06/25 12:53:43;;;;;;;9.18;2.55;;;;;;;;;;5030289;28;20022;-68
2021/06/25 12:56:16;;;;;;;10.23;3.03;;;;;;;;;;5028274;28;20674;-68
2021/06/25 12:58:42;;;;;;;10.75;3.25;;;;;;;;;;4994080;28;20049;-67
2021/06/25 13:01:08;;;;;;;16.30;3.28;;;;;;;;;;5035884;28;20018;-66
2021/06/25 13:03:34;;;;;;;9.57;2.75;;;;;;;;;;5027583;28;20068;-67
2021/06/25 13:06:00;;;;;;;12.40;2.65;;;;;;;;;;4997281;28;20053;-64
2021/06/25 13:08:29;;;;;;;12.80;3.00;;;;;;;;;;5026973;28;20018;-64
2021/06/25 13:10:57;;;;;;;37.08;3.88;;;;;;;;;;5030242;28;20022;-65
2021/06/25 13:13:26;;;;;;;9.05;2.35;;;;;;;;;;5029820;28;20014;-66
2021/06/25 13:15:54;;;;;;;16.63;3.00;;;;;;;;;;5029860;28;20365;-66
2021/06/25 13:18:21;;;;;;;18.77;3.07;;;;;;;;;;5025693;28;20022;-64
2021/06/25 13:21:05;;;;;;;11.88;2.65;;;;;;;;;;5027466;28;20029;-66
2021/06/25 13:23:31;;;;;;;10.90;2.45;;;;;;;;;;5025176;28;20021;-66
2021/06/25 13:26:06;;;;;;;9.10;2.50;;;;;;;;;;5023754;28;20537;-63
2021/06/25 13:28:32;;;;;;;16.15;3.08;;;;;;;;;;5032517;28;20025;-63
2021/06/25 13:31:04;;;;;;;12.93;2.38;;;;;;;;;;5033853;28;20013;-63
2021/06/25 13:33:38;;;;;;;17.40;2.22;;;;;;;;;;5034074;28;20025;-63
2021/06/25 13:36:05;;;;;;;9.13;2.03;;;;;;;;;;5034810;28;20477;-63
2021/06/25 13:38:31;;;;;;;18.85;3.05;;;;;;;;;;5034984;28;20057;-63
2021/06/25 13:40:58;;;;;;;11.00;2.92;;;;;;;;;;5017662;28;20045;-63
2021/06/25 13:43:34;;;;;;;11.52;2.80;;;;;;;;;;5034616;28;20021;-63
2021/06/25 13:46:12;;;;;;;12.18;2.35;;;;;;;;;;5034642;28;20025;-63
2021/06/25 13:48:38;;;;;;;3.90;1.98;;;;;;;;;;5034887;28;20032;-63
2021/06/25 13:51:04;;;;;;;9.00;2.30;;;;;;;;;;5034690;28;20021;-63
2021/06/25 13:53:37;;;;;;;9.88;2.65;;;;;;;;;;5034534;28;20025;-63
2021/06/25 13:56:04;;;;;;;8.52;3.25;;;;;;;;;;5034443;28;20385;-63
2021/06/25 13:58:29;;;;;;;7.32;2.40;;;;;;;;;;5034344;28;20030;-63
2021/06/25 14:00:57;;;;;;;5.47;1.98;;;;;;;;;;5034659;28;20018;-63
2021/06/25 14:03:24;;;;;;;10.07;2.58;;;;;;;;;;5034416;28;20024;-63
2021/06/25 14:05:56;;;;;;;15.95;3.00;;;;;;;;;;5034245;28;20406;-62
2021/06/25 14:08:22;;;;;;;10.57;3.10;;;;;;;;;;5016712;28;20033;-63
2021/06/25 14:10:55;;;;;;;8.55;2.70;;;;;;;;;;5034384;28;20054;-63
2021/06/25 14:13:39;;;;;;;8.20;2.83;;;;;;;;;;5034331;28;20091;-63
2021/06/25 14:16:23;;;;;;;10.30;2.53;;;;;;;;;;5033877;28;20022;-63
2021/06/25 14:18:49;;;;;;;7.70;2.35;;;;;;;;;;5034078;28;20116;-63
2021/06/25 14:21:17;;;;;;;14.20;2.58;;;;;;;;;;5034153;28;20080;-63
2021/06/25 14:23:42;;;;;;;13.80;3.08;;;;;;;;;;5033977;28;20508;-63
2021/06/25 14:26:08;;;;;;;8.55;3.13;;;;;;;;;;5015145;28;20035;-63
2021/06/25 14:28:33;;;;;;;11.95;2.80;;;;;;;;;;5034046;28;20024;-63
2021/06/25 14:31:00;;;;;;;9.63;2.70;;;;;;;;;;5033695;28;20031;-63
2021/06/25 14:33:27;;;;;;;8.93;2.80;;;;;;;;;;5036791;28;20024;-63
2021/06/25 14:35:53;;;;;;;9.85;2.65;;;;;;;;;;5035131;28;20358;-63
2021/06/25 14:38:19;;;;;;;9.35;2.50;;;;;;;;;;5033789;28;20037;-63
2021/06/25 14:40:45;;;;;;;7.90;2.35;;;;;;;;;;5033473;28;20018;-62
2021/06/25 14:43:11;;;;;;;8.68;2.33;;;;;;;;;;5033559;28;20067;-63